Time;durP1;ratioP1;P1;durP2;ratioP2;P2;SDS_P1;SDS_P2;PMS_P1;PMS_P2;Temp;Humidity;BMP_temperature;BMP_pressure;BME280_temperature;BME280_humidity;BME280_pressure;Samples;Min_cycle;Max_cycle;Signal;HPM_P1;HPM_P2
2022/04/28 00:00:07;;;;;;;9.57;8.77;;;8.00;1.00;;;;;;5073070;28;20077;-74
2022/04/28 00:02:33;;;;;;;11.38;8.73;;;8.00;1.00;;;;;;5070808;28;20376;-73
2022/04/28 00:05:00;;;;;;;9.35;8.55;;;8.00;1.00;;;;;;5067922;28;20031;-74
2022/04/28 00:07:26;;;;;;;9.38;8.48;;;7.90;1.00;;;;;;5070655;28;20495;-74
2022/04/28 00:09:51;;;;;;;10.80;7.88;;;7.90;1.00;;;;;;5068615;28;20048;-74
2022/04/28 00:12:17;;;;;;;8.75;7.95;;;7.90;1.00;;;;;;5070566;28;20504;-74
2022/04/28 00:14:43;;;;;;;9.35;8.15;;;7.80;1.00;;;;;;5072749;28;20020;-74
2022/04/28 00:17:09;;;;;;;9.65;8.30;;;7.80;1.00;;;;;;5068880;28;20392;-74
2022/04/28 00:19:35;;;;;;;9.38;8.48;;;7.80;1.00;;;;;;5071891;28;20107;-74
2022/04/28 00:22:00;;;;;;;8.85;8.05;;;7.80;1.00;;;;;;5073832;28;20023;-74
2022/04/28 00:24:26;;;;;;;9.68;8.77;;;7.70;1.00;;;;;;5075368;28;20055;-74
2022/04/28 00:26:51;;;;;;;11.98;9.20;;;7.70;1.00;;;;;;5073937;28;20047;-74
2022/04/28 00:29:17;;;;;;;9.40;8.60;;;7.70;1.00;;;;;;5076844;28;20428;-74
2022/04/28 00:31:42;;;;;;;8.75;7.95;;;7.60;1.00;;;;;;5073878;28;20021;-74
2022/04/28 00:34:08;;;;;;;9.70;8.80;;;7.60;1.00;;;;;;5075513;28;20126;-74
2022/04/28 00:36:33;;;;;;;10.45;9.38;;;7.60;1.00;;;;;;5073609;28;20129;-74
2022/04/28 00:38:59;;;;;;;10.30;8.85;;;7.60;1.00;;;;;;5075955;28;20039;-74
2022/04/28 00:41:24;;;;;;;9.00;8.20;;;7.60;1.00;;;;;;5073665;28;20366;-74
2022/04/28 00:43:53;;;;;;;8.68;7.88;;;7.60;1.00;;;;;;5075546;28;20434;-74
2022/04/28 00:46:20;;;;;;;10.30;9.30;;;7.50;1.00;;;;;;5074674;28;20029;-74
2022/04/28 00:51:31;;;;;;;9.95;8.95;;;7.60;1.00;;;;;;5067394;28;20089;-73
2022/04/28 00:53:58;;;;;;;10.18;8.77;;;7.50;1.00;;;;;;5070683;28;20017;-73
2022/04/28 00:56:27;;;;;;;9.73;8.38;;;7.50;1.00;;;;;;5065298;28;20074;-74
2022/04/28 00:58:55;;;;;;;10.52;9.30;;;7.50;1.00;;;;;;5072193;28;20081;-74
2022/04/28 01:01:21;;;;;;;9.30;8.38;;;7.50;1.00;;;;;;5073369;28;20412;-75
2022/04/28 01:03:47;;;;;;;10.50;9.40;;;7.50;1.00;;;;;;5075244;28;20369;-73
2022/04/28 01:06:13;;;;;;;13.52;10.07;;;7.30;1.00;;;;;;5072969;28;20027;-74
2022/04/28 01:08:40;;;;;;;10.68;9.75;;;7.40;1.00;;;;;;5074728;28;20163;-73
2022/04/28 01:11:06;;;;;;;11.02;10.02;;;7.40;1.00;;;;;;5072097;28;20483;-74
2022/04/28 01:13:32;;;;;;;10.23;9.30;;;7.40;1.00;;;;;;5075201;28;20016;-74
2022/04/28 01:15:57;;;;;;;11.10;10.00;;;7.30;1.00;;;;;;5074793;28;20017;-74
2022/04/28 01:18:23;;;;;;;14.93;12.18;;;7.20;1.00;;;;;;5071315;28;20370;-73
2022/04/28 01:20:49;;;;;;;10.93;9.90;;;7.10;1.00;;;;;;5073072;28;20056;-74
2022/04/28 01:23:14;;;;;;;10.60;9.65;;;7.10;1.00;;;;;;5070704;28;20040;-74
2022/04/28 01:25:40;;;;;;;11.00;9.63;;;7.10;1.00;;;;;;5072819;28;20035;-73
2022/04/28 01:28:06;;;;;;;12.30;11.10;;;7.10;1.00;;;;;;5077700;28;20086;-75
2022/04/28 01:30:33;;;;;;;11.52;10.25;;;7.10;1.00;;;;;;5072831;28;20427;-73
2022/04/28 01:33:00;;;;;;;13.60;11.20;;;7.10;1.00;;;;;;5072692;28;20463;-74
2022/04/28 01:35:26;;;;;;;11.75;9.65;;;7.10;1.00;;;;;;5069483;28;20016;-74
2022/04/28 01:37:55;;;;;;;10.98;9.88;;;7.10;1.00;;;;;;5075855;28;20032;-74
2022/04/28 01:40:21;;;;;;;10.20;9.18;;;7.00;1.00;;;;;;5072294;28;20027;-74
2022/04/28 01:42:48;;;;;;;11.50;10.32;;;7.00;1.00;;;;;;5077577;28;20040;-74
2022/04/28 01:45:14;;;;;;;10.60;9.63;;;7.00;1.00;;;;;;5073373;28;20111;-73
2022/04/28 01:47:40;;;;;;;13.80;10.65;;;6.90;1.00;;;;;;5076510;28;20027;-74
2022/04/28 01:50:09;;;;;;;11.95;9.75;;;6.90;1.00;;;;;;5074140;28;20016;-74
2022/04/28 01:55:19;;;;;;;10.73;9.73;;;6.90;1.00;;;;;;5072391;28;20078;-74
2022/04/28 01:57:46;;;;;;;11.30;9.90;;;6.90;1.00;;;;;;5072337;28;20028;-74
2022/04/28 02:00:12;;;;;;;10.48;9.50;;;6.80;1.00;;;;;;5070856;28;20433;-73
2022/04/28 02:02:38;;;;;;;11.93;10.73;;;6.80;1.00;;;;;;5070573;28;20380;-74
2022/04/28 02:05:07;;;;;;;11.00;9.90;;;6.70;1.00;;;;;;5071894;28;20032;-74
2022/04/28 02:07:34;;;;;;;12.57;11.40;;;6.60;1.00;;;;;;5072031;28;20020;-74
2022/04/28 02:09:59;;;;;;;11.18;10.07;;;6.60;1.00;;;;;;5075406;28;20470;-74
2022/04/28 02:12:26;;;;;;;11.68;9.82;;;6.70;1.00;;;;;;5072861;28;20155;-73
2022/04/28 02:14:53;;;;;;;12.10;10.90;;;6.70;1.00;;;;;;5071808;28;20033;-74
2022/04/28 02:17:20;;;;;;;13.43;10.25;;;6.70;1.00;;;;;;5085731;28;20498;-74
2022/04/28 02:19:46;;;;;;;12.82;11.52;;;6.60;1.00;;;;;;5074082;28;20063;-73
2022/04/28 02:22:11;;;;;;;11.75;10.65;;;6.50;1.00;;;;;;5074247;28;20115;-74
2022/04/28 02:24:37;;;;;;;13.30;9.35;;;6.50;1.00;;;;;;5070253;28;20028;-73
2022/04/28 02:27:03;;;;;;;11.30;10.20;;;6.60;1.00;;;;;;5071832;28;20008;-73
2022/04/28 02:29:28;;;;;;;12.73;10.90;;;6.60;1.00;;;;;;5070420;28;20063;-74
2022/04/28 02:31:54;;;;;;;12.88;11.50;;;6.50;1.00;;;;;;5072172;28;20114;-73
2022/04/28 02:34:19;;;;;;;11.43;10.25;;;6.50;1.00;;;;;;5076616;28;20021;-74
2022/04/28 02:36:46;;;;;;;12.13;10.95;;;6.50;1.00;;;;;;5069433;28;20431;-73
2022/04/28 02:39:13;;;;;;;11.65;10.55;;;6.40;1.00;;;;;;5079367;28;20028;-74
2022/04/28 02:41:38;;;;;;;11.43;10.32;;;6.40;1.00;;;;;;5069861;28;20016;-73
2022/04/28 02:44:04;;;;;;;11.13;10.13;;;6.30;1.00;;;;;;5071309;28;20070;-74
2022/04/28 02:46:31;;;;;;;11.13;10.02;;;6.40;1.00;;;;;;5071867;28;20028;-73
2022/04/28 02:48:57;;;;;;;10.88;9.80;;;6.40;1.00;;;;;;5073599;28;20028;-74
2022/04/28 02:51:22;;;;;;;12.18;10.98;;;6.40;1.00;;;;;;5070407;28;20484;-73
2022/04/28 02:53:48;;;;;;;11.50;10.40;;;6.40;1.00;;;;;;5076149;28;20016;-73
2022/04/28 02:56:14;;;;;;;15.18;10.77;;;6.40;1.00;;;;;;5070021;28;20031;-74
2022/04/28 02:58:39;;;;;;;11.77;10.68;;;6.30;1.00;;;;;;5076219;28;20032;-72
2022/04/28 03:01:05;;;;;;;11.15;10.15;;;6.30;1.00;;;;;;5069805;28;20111;-74
2022/04/28 03:03:31;;;;;;;11.68;10.48;;;6.30;1.00;;;;;;5074717;28;20028;-74
2022/04/28 03:11:26;;;;;;;12.60;11.35;;;6.20;1.00;;;;;;5071486;28;20524;-74
2022/04/28 03:13:52;;;;;;;12.50;10.75;;;6.20;1.00;;;;;;5071816;28;20028;-74
2022/04/28 03:16:18;;;;;;;10.95;9.95;;;6.20;1.00;;;;;;5070226;28;20021;-73
2022/04/28 03:18:45;;;;;;;11.90;10.45;;;6.20;1.00;;;;;;5071913;28;20029;-74
2022/04/28 03:21:11;;;;;;;12.77;11.02;;;6.10;1.00;;;;;;5072598;28;20020;-73
2022/04/28 03:23:37;;;;;;;16.02;12.20;;;6.10;1.00;;;;;;5068096;28;20055;-75
2022/04/28 03:26:06;;;;;;;11.70;10.30;;;6.10;1.00;;;;;;5068856;28;20020;-74
2022/04/28 03:28:35;;;;;;;11.40;10.30;;;6.10;1.00;;;;;;5067900;28;20026;-73
2022/04/28 03:31:01;;;;;;;11.93;10.80;;;6.10;1.00;;;;;;5069147;28;20020;-73
2022/04/28 03:33:27;;;;;;;11.90;10.80;;;6.10;1.00;;;;;;5070183;28;20110;-73
2022/04/28 03:35:53;;;;;;;12.98;11.77;;;6.10;1.00;;;;;;5074532;28;20063;-73
2022/04/28 03:38:19;;;;;;;13.25;11.93;;;6.10;1.00;;;;;;5069544;28;20036;-74
2022/04/28 03:40:44;;;;;;;12.35;11.13;;;6.10;1.00;;;;;;5073235;28;20039;-74
2022/04/28 03:43:10;;;;;;;11.32;10.07;;;6.00;1.00;;;;;;5071822;28;20039;-74
2022/04/28 03:45:37;;;;;;;17.27;11.75;;;6.00;1.00;;;;;;5071083;28;20484;-73
2022/04/28 03:48:03;;;;;;;16.40;11.00;;;6.00;1.00;;;;;;5071868;28;20017;-74
2022/04/28 03:50:30;;;;;;;12.52;11.18;;;6.00;1.00;;;;;;5068756;28;20028;-73
2022/04/28 03:52:57;;;;;;;19.13;11.30;;;5.90;1.00;;;;;;5070206;28;20028;-74
2022/04/28 03:55:23;;;;;;;22.92;11.77;;;5.90;1.00;;;;;;5075642;28;20124;-74
2022/04/28 03:57:49;;;;;;;12.77;11.48;;;5.80;1.00;;;;;;5078159;28;20016;-73
2022/04/28 04:00:14;;;;;;;14.43;11.00;;;5.80;1.00;;;;;;5075142;28;20531;-74
2022/04/28 04:02:40;;;;;;;16.55;10.65;;;5.80;1.00;;;;;;5072192;28;20032;-73
2022/04/28 04:05:07;;;;;;;12.27;10.90;;;5.80;1.00;;;;;;5074144;28;20029;-74
2022/04/28 04:07:33;;;;;;;12.90;11.50;;;5.80;1.00;;;;;;5073808;28;20099;-73
2022/04/28 04:09:59;;;;;;;16.90;12.20;;;5.80;1.00;;;;;;5081571;28;20020;-74
2022/04/28 04:12:25;;;;;;;11.88;10.75;;;5.90;1.00;;;;;;5074239;28;20044;-74
2022/04/28 04:14:52;;;;;;;15.02;11.52;;;5.90;1.00;;;;;;5074726;28;20021;-73
2022/04/28 04:17:19;;;;;;;12.82;11.15;;;5.90;1.00;;;;;;5073780;28;20358;-74
2022/04/28 04:19:45;;;;;;;11.68;10.57;;;5.90;1.00;;;;;;5076727;28;20187;-74
2022/04/28 04:22:10;;;;;;;14.75;10.20;;;5.90;1.00;;;;;;5075040;28;20020;-74
2022/04/28 04:24:36;;;;;;;14.00;11.48;;;6.00;1.00;;;;;;5073846;28;20012;-74
2022/04/28 04:27:02;;;;;;;15.98;11.48;;;5.90;1.00;;;;;;5071656;28;20016;-74
2022/04/28 04:29:28;;;;;;;12.77;11.07;;;6.00;1.00;;;;;;5074002;28;20112;-74
2022/04/28 04:34:37;;;;;;;10.63;9.52;;;6.40;1.00;;;;;;5068577;28;20043;-74
2022/04/28 04:37:03;;;;;;;11.57;10.35;;;6.80;1.00;;;;;;5073841;28;20469;-74
2022/04/28 04:39:28;;;;;;;9.77;8.90;;;7.20;1.00;;;;;;5072522;28;20024;-74
2022/04/28 04:41:54;;;;;;;9.90;8.90;;;7.60;1.00;;;;;;5073697;28;20403;-74
2022/04/28 04:44:20;;;;;;;10.50;8.05;;;7.80;1.00;;;;;;5074005;28;20021;-73
2022/04/28 04:46:45;;;;;;;10.10;9.10;;;8.00;1.00;;;;;;5073563;28;20029;-74
2022/04/28 04:49:11;;;;;;;9.73;8.50;;;8.10;99.90;;;;;;5073279;28;20021;-73
2022/04/28 04:51:36;;;;;;;11.77;8.68;;;8.70;99.90;;;;;;5081122;28;20028;-74
2022/04/28 04:54:02;;;;;;;8.43;7.55;;;9.20;99.90;;;;;;5072200;28;20461;-73
2022/04/28 04:56:27;;;;;;;9.43;8.52;;;9.80;99.90;;;;;;5072649;28;20081;-74
2022/04/28 04:58:53;;;;;;;10.02;9.02;;;10.10;99.90;;;;;;5072297;28;20445;-73
2022/04/28 05:01:18;;;;;;;9.00;8.20;;;10.20;99.90;;;;;;5078205;28;20103;-75
2022/04/28 05:03:44;;;;;;;9.45;8.15;;;10.50;99.90;;;;;;5073525;28;20059;-74
2022/04/28 05:06:09;;;;;;;8.82;8.07;;;10.70;99.90;;;;;;5072319;28;20108;-73
2022/04/28 05:08:35;;;;;;;9.90;7.72;;;10.40;99.90;;;;;;5075853;28;20032;-74
2022/04/28 05:11:00;;;;;;;7.82;7.13;;;10.10;99.90;;;;;;5077764;28;20021;-73
2022/04/28 05:13:26;;;;;;;8.43;7.63;;;10.20;99.90;;;;;;5070740;28;20013;-73
2022/04/28 05:15:52;;;;;;;8.70;7.05;;;10.50;99.90;;;;;;5076178;28;20016;-73
2022/04/28 05:18:17;;;;;;;9.07;8.30;;;10.60;99.90;;;;;;5071243;28;20044;-73
2022/04/28 05:20:43;;;;;;;11.18;7.72;;;10.70;99.90;;;;;;5075819;28;20046;-73
2022/04/28 05:23:08;;;;;;;7.88;7.18;;;10.80;99.90;;;;;;5073442;28;20048;-73
2022/04/28 05:25:34;;;;;;;7.82;7.13;;;10.90;99.90;;;;;;5072749;28;20020;-73
2022/04/28 05:27:59;;;;;;;8.05;7.25;;;11.50;99.90;;;;;;5071114;28;20334;-74
2022/04/28 05:30:25;;;;;;;8.30;7.35;;;11.70;99.90;;;;;;5074606;28;20022;-74
2022/04/28 05:32:51;;;;;;;8.98;7.55;;;11.90;99.90;;;;;;5075818;28;20029;-74
2022/04/28 05:35:16;;;;;;;9.15;6.68;;;12.50;99.90;;;;;;5074251;28;20033;-73
2022/04/28 05:37:42;;;;;;;7.57;6.90;;;12.70;99.90;;;;;;5070589;28;20021;-73
2022/04/28 05:40:11;;;;;;;22.77;7.43;;;12.50;99.90;;;;;;5080429;28;20512;-73
2022/04/28 05:48:05;;;;;;;14.65;7.63;;;13.00;99.90;;;;;;5071834;28;21011;-73
2022/04/28 05:50:33;;;;;;;11.13;6.30;;;12.70;99.90;;;;;;5072214;28;20025;-74
2022/04/28 05:52:59;;;;;;;10.57;6.50;;;12.50;99.90;;;;;;5074725;28;20032;-74
2022/04/28 05:55:24;;;;;;;8.38;7.57;;;12.30;99.90;;;;;;5072212;28;20079;-74
2022/04/28 05:57:49;;;;;;;8.40;7.13;;;12.20;99.90;;;;;;5069872;28;20023;-75
2022/04/28 06:00:16;;;;;;;10.30;7.13;;;12.80;99.90;;;;;;5071774;28;20025;-74
2022/04/28 06:02:41;;;;;;;8.20;7.20;;;13.50;99.90;;;;;;5070845;28;20021;-74
2022/04/28 06:05:07;;;;;;;9.63;8.43;;;13.10;99.90;;;;;;5072180;28;20025;-74
2022/04/28 06:07:33;;;;;;;8.38;7.40;;;13.30;99.90;;;;;;5070972;28;20023;-74
2022/04/28 06:09:59;;;;;;;10.23;8.45;;;12.90;99.90;;;;;;5076039;28;20230;-74
2022/04/28 06:12:27;;;;;;;12.02;8.90;;;12.40;99.90;;;;;;5071687;28;20069;-73
2022/04/28 06:14:54;;;;;;;9.38;8.15;;;12.10;99.90;;;;;;5070506;28;20092;-73
2022/04/28 06:17:19;;;;;;;11.20;8.80;;;11.90;99.90;;;;;;5070160;28;20473;-74
2022/04/28 06:19:45;;;;;;;13.43;8.50;;;11.80;99.90;;;;;;5072927;28;20035;-74
2022/04/28 06:22:10;;;;;;;11.10;9.35;;;11.70;99.90;;;;;;5070537;28;20526;-73
2022/04/28 06:24:36;;;;;;;11.60;8.73;;;11.40;99.90;;;;;;5074411;28;20033;-74
2022/04/28 06:27:02;;;;;;;10.40;9.15;;;11.00;99.90;;;;;;5075822;28;20028;-73
2022/04/28 06:29:27;;;;;;;12.23;9.88;;;11.30;99.90;;;;;;5073549;28;20028;-74
2022/04/28 06:31:53;;;;;;;10.05;8.32;;;11.40;99.90;;;;;;5074852;28;20043;-73
2022/04/28 06:34:19;;;;;;;8.82;8.02;;;11.50;99.90;;;;;;5073787;28;20103;-74
2022/04/28 06:36:44;;;;;;;12.07;8.63;;;11.70;99.90;;;;;;5070434;28;20056;-75
2022/04/28 06:39:10;;;;;;;9.25;8.32;;;11.60;99.90;;;;;;5070657;28;20107;-74
2022/04/28 06:41:35;;;;;;;15.48;8.88;;;11.50;99.90;;;;;;5071599;28;20017;-74
2022/04/28 06:44:01;;;;;;;11.20;8.65;;;11.30;99.90;;;;;;5071261;28;20480;-74
2022/04/28 06:46:28;;;;;;;9.18;8.27;;;11.20;99.90;;;;;;5049906;28;20512;-74
2022/04/28 06:48:53;;;;;;;8.85;8.05;;;11.50;99.90;;;;;;5047877;28;20021;-74
2022/04/28 06:51:19;;;;;;;10.60;9.15;;;11.60;99.90;;;;;;5051493;28;20397;-74
2022/04/28 06:53:44;;;;;;;9.27;7.82;;;11.80;99.90;;;;;;5052387;28;20060;-74
2022/04/28 06:56:10;;;;;;;9.88;8.45;;;12.00;99.90;;;;;;5057460;28;20043;-74
2022/04/28 06:58:37;;;;;;;8.90;7.85;;;11.70;99.90;;;;;;5048827;28;20060;-74
2022/04/28 07:01:03;;;;;;;10.75;8.50;;;12.10;99.90;;;;;;5051358;28;20027;-77
2022/04/28 07:03:29;;;;;;;8.98;8.15;;;12.30;99.90;;;;;;5050796;28;20028;-74
2022/04/28 07:05:54;;;;;;;8.70;7.80;;;12.40;99.90;;;;;;5050914;28;20029;-74
2022/04/28 07:08:20;;;;;;;13.77;8.68;;;12.40;99.90;;;;;;5053535;28;20021;-72
2022/04/28 07:10:46;;;;;;;12.05;8.73;;;12.50;99.90;;;;;;5046797;28;20021;-74
2022/04/28 07:13:11;;;;;;;9.60;7.97;;;12.60;99.90;;;;;;5044491;28;20033;-74
2022/04/28 07:15:38;;;;;;;8.45;7.63;;;12.50;99.90;;;;;;5050421;28;20033;-73
2022/04/28 07:18:05;;;;;;;8.35;7.57;;;12.70;99.90;;;;;;5052715;28;20033;-74
2022/04/28 07:20:32;;;;;;;9.60;8.27;;;12.60;99.90;;;;;;5049307;28;20393;-74
2022/04/28 07:22:59;;;;;;;9.68;7.53;;;12.70;99.90;;;;;;5051260;28;20028;-74
2022/04/28 07:25:28;;;;;;;7.78;6.97;;;12.90;99.90;;;;;;5054715;28;20489;-73
2022/04/28 07:27:57;;;;;;;7.72;6.93;;;13.20;99.90;;;;;;5048907;28;20017;-74
2022/04/28 07:30:24;;;;;;;7.88;7.00;;;13.20;99.90;;;;;;5063480;28;20040;-74
2022/04/28 07:32:51;;;;;;;8.65;7.70;;;13.30;99.90;;;;;;5055131;28;20017;-73
2022/04/28 07:35:18;;;;;;;8.60;7.90;;;13.40;99.90;;;;;;5054841;28;20025;-74
2022/04/28 07:37:44;;;;;;;8.88;7.88;;;13.40;99.90;;;;;;5049930;28;20025;-74
2022/04/28 07:40:10;;;;;;;13.35;7.55;;;13.60;99.90;;;;;;5053263;28;20540;-74
2022/04/28 07:42:35;;;;;;;8.18;7.20;;;13.50;99.90;;;;;;5050170;28;20064;-74
2022/04/28 07:45:01;;;;;;;8.40;7.50;;;13.70;99.90;;;;;;5053505;28;20029;-73
2022/04/28 07:47:26;;;;;;;9.05;6.00;;;14.00;99.90;;;;;;5055311;28;20481;-73
2022/04/28 07:49:53;;;;;;;7.75;7.00;;;14.30;99.90;;;;;;5053373;28;20152;-73
2022/04/28 07:52:19;;;;;;;6.97;6.38;;;14.30;99.90;;;;;;5054376;28;20017;-73
2022/04/28 07:54:45;;;;;;;6.70;6.10;;;14.30;99.90;;;;;;5054814;28;20028;-74
2022/04/28 07:57:10;;;;;;;6.15;5.55;;;14.50;99.90;;;;;;5054179;28;20017;-72
2022/04/28 07:59:37;;;;;;;9.57;6.50;;;14.60;99.90;;;;;;5047065;28;20044;-72
2022/04/28 08:02:04;;;;;;;9.30;5.85;;;14.50;99.90;;;;;;5055986;28;20036;-74
2022/04/28 08:04:30;;;;;;;5.18;4.72;;;14.80;99.90;;;;;;5056687;28;20018;-74
2022/04/28 08:06:56;;;;;;;7.85;4.90;;;15.00;99.90;;;;;;5060146;28;20493;-72
2022/04/28 08:09:22;;;;;;;5.43;4.93;;;15.10;99.90;;;;;;5053073;28;20028;-74
2022/04/28 08:11:47;;;;;;;6.60;5.10;;;15.20;99.90;;;;;;5054091;28;20029;-73
2022/04/28 08:14:13;;;;;;;5.32;4.82;;;15.30;99.90;;;;;;5056969;28;20444;-73
2022/04/28 08:16:39;;;;;;;4.53;4.13;;;15.30;99.90;;;;;;5056403;28;20021;-72
2022/04/28 08:19:05;;;;;;;7.65;4.70;;;15.40;99.90;;;;;;5052734;28;20025;-73
2022/04/28 08:21:30;;;;;;;6.00;4.63;;;15.60;99.90;;;;;;5074883;28;20021;-74
2022/04/28 08:23:56;;;;;;;6.30;4.50;;;15.70;99.90;;;;;;5054403;28;20067;-74
2022/04/28 08:26:22;;;;;;;5.32;4.50;;;15.80;99.90;;;;;;5052097;28;20112;-74
2022/04/28 08:28:48;;;;;;;6.03;4.38;;;15.80;99.90;;;;;;5052666;28;20112;-73
2022/04/28 08:31:13;;;;;;;6.35;4.15;;;15.90;99.90;;;;;;5051795;28;20048;-73
2022/04/28 08:33:39;;;;;;;10.27;4.38;;;15.90;99.90;;;;;;5056329;28;20025;-73
2022/04/28 08:36:04;;;;;;;4.78;4.28;;;16.00;99.90;;;;;;5052064;28;20031;-73
2022/04/28 08:38:31;;;;;;;4.78;4.28;;;16.20;99.90;;;;;;5053882;28;20037;-73
2022/04/28 08:41:01;;;;;;;5.20;4.30;;;16.10;99.50;;;;;;5052486;28;20093;-72
2022/04/28 08:43:30;;;;;;;7.85;3.70;;;16.20;99.20;;;;;;5065420;28;20458;-74
2022/04/28 08:48:54;;;;;;;4.82;3.35;;;16.20;97.20;;;;;;5048699;28;20070;-72
2022/04/28 08:51:22;;;;;;;3.90;3.53;;;16.40;96.40;;;;;;5054017;28;20112;-73
2022/04/28 08:53:49;;;;;;;5.53;4.60;;;16.50;96.70;;;;;;5053155;28;20033;-73
2022/04/28 08:56:16;;;;;;;4.18;3.78;;;16.60;96.00;;;;;;5056661;28;20132;-73
2022/04/28 08:58:41;;;;;;;4.25;3.53;;;16.70;95.90;;;;;;5053870;28;20025;-73
2022/04/28 09:01:07;;;;;;;4.53;3.05;;;16.80;95.50;;;;;;5057415;28;20517;-73
2022/04/28 09:03:33;;;;;;;3.22;2.88;;;16.90;93.10;;;;;;5052044;28;20435;-73
2022/04/28 09:06:19;;;;;;;3.20;2.90;;;16.90;93.30;;;;;;5056920;28;20032;-72
2022/04/28 09:08:45;;;;;;;3.35;2.72;;;16.90;92.40;;;;;;5052198;28;20096;-73
2022/04/28 09:11:24;;;;;;;3.30;3.00;;;17.00;92.00;;;;;;5052257;28;20052;-72
2022/04/28 09:14:09;;;;;;;3.10;2.80;;;17.00;91.50;;;;;;5055106;28;20566;-72
2022/04/28 09:16:41;;;;;;;3.45;2.75;;;17.10;90.60;;;;;;5051638;28;20036;-73
2022/04/28 09:19:07;;;;;;;2.80;2.25;;;17.10;88.10;;;;;;5052807;28;20056;-73
2022/04/28 09:21:34;;;;;;;5.57;2.78;;;17.00;86.20;;;;;;5053028;28;20025;-73
2022/04/28 09:24:00;;;;;;;3.75;2.08;;;17.10;87.30;;;;;;5053073;28;20105;-73
2022/04/28 09:26:26;;;;;;;3.03;2.28;;;17.20;79.30;;;;;;5050990;28;20055;-73
2022/04/28 09:28:53;;;;;;;3.63;2.10;;;17.20;78.60;;;;;;5057879;28;20056;-73
2022/04/28 09:31:20;;;;;;;4.07;3.67;;;17.10;78.60;;;;;;5053294;28;20017;-73
2022/04/28 09:33:47;;;;;;;2.60;2.25;;;17.10;79.20;;;;;;5051567;28;20104;-72
2022/04/28 09:36:14;;;;;;;2.75;2.28;;;17.30;79.40;;;;;;5053599;28;20025;-72
2022/04/28 09:38:40;;;;;;;2.08;1.88;;;17.40;77.20;;;;;;5051762;28;20025;-72
2022/04/28 09:43:56;;;;;;;2.83;1.90;;;17.40;78.10;;;;;;5050146;28;20151;-73
2022/04/28 09:46:23;;;;;;;2.53;2.13;;;17.60;79.10;;;;;;5056300;28;20021;-73
2022/04/28 09:48:51;;;;;;;2.83;1.92;;;17.90;76.40;;;;;;5054142;28;20184;-73
2022/04/28 09:51:22;;;;;;;2.60;2.40;;;18.00;74.60;;;;;;5052497;28;20021;-72
2022/04/28 09:53:48;;;;;;;4.50;2.28;;;18.10;73.60;;;;;;5051855;28;20025;-73
2022/04/28 09:56:16;;;;;;;3.53;2.35;;;18.10;74.80;;;;;;5050579;28;20032;-72
2022/04/28 09:58:42;;;;;;;2.70;2.28;;;18.10;74.80;;;;;;5050061;28;20074;-73
2022/04/28 10:01:08;;;;;;;3.17;2.17;;;18.20;74.00;;;;;;5062328;28;20464;-72
2022/04/28 10:03:35;;;;;;;2.55;2.35;;;18.10;72.30;;;;;;5052231;28;20036;-73
2022/04/28 10:06:03;;;;;;;5.40;2.33;;;17.90;72.40;;;;;;5051988;28;20055;-73
2022/04/28 10:08:33;;;;;;;2.58;2.08;;;17.80;72.40;;;;;;5052175;28;20377;-73
2022/04/28 10:11:01;;;;;;;3.15;2.72;;;17.90;72.40;;;;;;5050867;28;20377;-73
2022/04/28 10:13:28;;;;;;;3.22;2.17;;;17.90;72.30;;;;;;5051288;28;20025;-73
2022/04/28 10:15:58;;;;;;;3.35;2.17;;;18.10;73.00;;;;;;5055280;28;20025;-72
2022/04/28 10:18:27;;;;;;;2.40;2.10;;;18.30;72.20;;;;;;5051885;28;20033;-72
2022/04/28 10:21:00;;;;;;;2.25;2.05;;;18.20;72.00;;;;;;5051122;28;20429;-74
2022/04/28 10:34:58;;;;;;;3.15;1.98;;;18.40;70.80;;;;;;5051626;28;20024;-73
2022/04/28 10:37:30;;;;;;;3.95;2.60;;;18.40;70.40;;;;;;5051152;28;20029;-74
2022/04/28 10:39:56;;;;;;;3.08;2.28;;;18.30;71.30;;;;;;5066821;28;20039;-72
2022/04/28 10:42:44;;;;;;;3.35;2.03;;;18.60;71.20;;;;;;5050278;28;20024;-74
2022/04/28 10:45:23;;;;;;;2.40;2.20;;;18.70;69.90;;;;;;5047998;28;20055;-73
2022/04/28 10:48:08;;;;;;;4.20;2.47;;;18.90;69.80;;;;;;5051337;28;20492;-72
2022/04/28 10:50:34;;;;;;;3.38;2.40;;;18.90;69.80;;;;;;5068242;28;20067;-73
2022/04/28 10:53:05;;;;;;;3.88;2.30;;;18.80;69.40;;;;;;5051976;28;20013;-74
2022/04/28 10:55:34;;;;;;;;;;;18.90;68.80;;;;;;5053030;28;20040;-73
2022/04/28 10:58:19;;;;;;;4.70;2.25;;;18.80;68.90;;;;;;5051598;28;19915;-72
2022/04/28 11:01:23;;;;;;;2.63;2.38;;;18.90;68.80;;;;;;5050334;28;20032;-73
2022/04/28 11:03:49;;;;;;;2.30;2.08;;;18.80;68.70;;;;;;5047082;28;20063;-73
2022/04/28 11:06:19;;;;;;;2.42;2.22;;;18.90;68.00;;;;;;5052104;28;20436;-73
2022/04/28 11:08:47;;;;;;;2.70;2.50;;;18.90;67.20;;;;;;5050229;28;20029;-73
2022/04/28 11:11:13;;;;;;;3.97;2.28;;;19.00;67.80;;;;;;5052233;28;20501;-74
2022/04/28 11:13:43;;;;;;;3.92;2.33;;;19.10;68.20;;;;;;5050226;28;20017;-73
2022/04/28 11:16:10;;;;;;;2.60;2.40;;;19.00;66.70;;;;;;5066112;28;20025;-73
2022/04/28 11:18:35;;;;;;;3.83;1.88;;;18.90;67.80;;;;;;5050891;28;20098;-73
2022/04/28 11:21:03;;;;;;;3.83;2.08;;;19.00;67.40;;;;;;5055724;28;20481;-74
2022/04/28 11:23:37;;;;;;;3.20;2.53;;;19.10;67.90;;;;;;5050908;28;20055;-73
2022/04/28 11:26:03;;;;;;;3.47;2.72;;;19.10;66.80;;;;;;5047415;28;20107;-73
2022/04/28 11:28:31;;;;;;;2.83;2.63;;;19.10;66.40;;;;;;5051135;28;20114;-73
2022/04/28 11:30:58;;;;;;;3.03;2.00;;;19.20;67.00;;;;;;5048774;28;20021;-73
2022/04/28 11:33:23;;;;;;;2.35;2.15;;;19.30;67.30;;;;;;5055681;28;20024;-74
2022/04/28 11:35:49;;;;;;;3.55;2.13;;;19.40;67.30;;;;;;5049317;28;20029;-74
2022/04/28 11:38:23;;;;;;;4.45;1.80;;;19.30;66.10;;;;;;5050253;28;20173;-73
2022/04/28 11:41:03;;;;;;;2.92;2.05;;;19.20;66.20;;;;;;5050886;28;20021;-74
2022/04/28 11:43:34;;;;;;;3.80;2.53;;;19.30;66.50;;;;;;5063226;28;20029;-75
2022/04/28 11:46:02;;;;;;;2.63;2.42;;;19.40;64.50;;;;;;5050401;28;20432;-74
2022/04/28 11:48:29;;;;;;;3.33;2.00;;;19.40;64.70;;;;;;5052587;28;20097;-75
2022/04/28 11:51:00;;;;;;;2.50;1.90;;;19.30;66.30;;;;;;5049738;28;20045;-74
2022/04/28 11:53:26;;;;;;;2.00;1.80;;;19.30;67.90;;;;;;5047899;28;20025;-74
2022/04/28 11:55:51;;;;;;;3.15;1.55;;;19.60;67.30;;;;;;5051818;28;20032;-73
2022/04/28 11:58:17;;;;;;;2.78;2.13;;;19.90;66.30;;;;;;5049399;28;20074;-73
2022/04/28 12:00:47;;;;;;;2.17;1.98;;;20.00;64.60;;;;;;5056736;28;20032;-73
2022/04/28 12:03:24;;;;;;;2.20;2.00;;;19.80;63.60;;;;;;5049588;28;20025;-72
2022/04/28 12:05:52;;;;;;;2.88;1.80;;;19.80;63.60;;;;;;5053821;28;20550;-73
2022/04/28 12:08:21;;;;;;;1.88;1.75;;;19.70;62.50;;;;;;5050789;28;20029;-73
2022/04/28 12:16:18;;;;;;;2.67;1.95;;;19.60;62.70;;;;;;5052623;28;20047;-73
2022/04/28 12:21:32;;;;;;;2.25;2.05;;;19.70;64.00;;;;;;5047597;28;20091;-72
2022/04/28 12:24:00;;;;;;;4.13;2.10;;;19.60;63.50;;;;;;5052110;28;20051;-74
2022/04/28 12:26:31;;;;;;;1.55;1.45;;;19.70;64.00;;;;;;5054179;28;20021;-74
2022/04/28 12:29:13;;;;;;;2.83;2.42;;;19.80;63.60;;;;;;5053588;28;20021;-72
2022/04/28 12:31:39;;;;;;;5.00;2.50;;;19.90;64.10;;;;;;5052820;28;20013;-74
2022/04/28 12:34:14;;;;;;;2.05;1.85;;;20.00;64.70;;;;;;5058257;28;20106;-74
2022/04/28 12:36:54;;;;;;;3.42;2.20;;;20.20;61.90;;;;;;5053939;28;20016;-74
2022/04/28 12:39:21;;;;;;;3.47;1.85;;;20.10;61.80;;;;;;5051756;28;20025;-73
2022/04/28 12:41:48;;;;;;;4.28;1.95;;;20.10;61.20;;;;;;5054267;28;20081;-74
2022/04/28 12:44:14;;;;;;;1.67;1.58;;;20.00;60.70;;;;;;5058318;28;20043;-74
2022/04/28 12:46:45;;;;;;;1.92;1.83;;;19.90;62.10;;;;;;5054201;28;20397;-72
2022/04/28 12:49:13;;;;;;;2.33;2.10;;;19.80;62.00;;;;;;5053968;28;20095;-74
2022/04/28 12:51:42;;;;;;;2.33;1.73;;;19.90;61.90;;;;;;5061154;28;20052;-73
2022/04/28 12:54:16;;;;;;;2.72;1.88;;;20.00;60.90;;;;;;5053730;28;20412;-74
2022/04/28 12:56:44;;;;;;;2.42;1.95;;;20.00;61.00;;;;;;5051953;28;20049;-72
2022/04/28 12:59:11;;;;;;;1.95;1.63;;;20.10;60.70;;;;;;5053557;28;20044;-72
2022/04/28 13:01:41;;;;;;;2.83;1.77;;;20.30;60.60;;;;;;5057884;28;20056;-73
2022/04/28 13:04:11;;;;;;;2.50;2.07;;;20.20;59.30;;;;;;5058146;28;20016;-73
2022/04/28 13:06:39;;;;;;;2.33;1.77;;;20.10;59.80;;;;;;5053815;28;20282;-73
2022/04/28 13:09:09;;;;;;;4.38;2.28;;;19.90;61.30;;;;;;5059006;28;20825;-73
2022/04/28 13:11:36;;;;;;;2.30;2.10;;;20.00;61.70;;;;;;5053794;28;20028;-73
2022/04/28 13:14:04;;;;;;;2.20;2.00;;;20.10;61.40;;;;;;5060378;28;20020;-73
2022/04/28 13:16:30;;;;;;;3.00;2.60;;;20.50;59.60;;;;;;5052766;28;20036;-74
2022/04/28 13:18:56;;;;;;;2.30;1.70;;;20.20;60.70;;;;;;5051134;28;20028;-74
2022/04/28 13:21:22;;;;;;;3.03;1.83;;;20.20;60.60;;;;;;5053335;28;20388;-73
2022/04/28 13:23:48;;;;;;;2.03;1.83;;;20.40;60.30;;;;;;5049350;28;20032;-74
2022/04/28 13:26:21;;;;;;;2.15;1.70;;;20.50;59.30;;;;;;5052335;28;20039;-75
2022/04/28 13:28:48;;;;;;;2.53;1.80;;;20.30;59.00;;;;;;5051893;28;20071;-73
2022/04/28 13:31:14;;;;;;;2.45;2.00;;;20.40;58.80;;;;;;5053196;28;20029;-73